Time;durP1;ratioP1;P1;durP2;ratioP2;P2;SDS_P1;SDS_P2;PMS_P1;PMS_P2;Temp;Humidity;BMP_temperature;BMP_pressure;BME280_temperature;BME280_humidity;BME280_pressure;Samples;Min_cycle;Max_cycle;Signal;HPM_P1;HPM_P2
2024/04/09 00:00:26;;;;;;;;;;;;;;;22.52;42.39;94802.72;11239254;26;3720;-61
2024/04/09 00:05:31;;;;;;;;;;;;;;;22.49;42.59;94798.84;11235575;26;3227;-63
2024/04/09 00:10:32;;;;;;;;;;;;;;;22.51;42.64;94795.88;11240810;26;3011;-61
2024/04/09 00:15:33;;;;;;;;;;;;;;;22.51;42.68;94790.59;11246441;26;3096;-60
2024/04/09 00:20:34;;;;;;;;;;;;;;;22.50;42.70;94776.59;11241156;26;3095;-61
2024/04/09 00:25:34;;;;;;;;;;;;;;;22.50;42.63;94792.44;11232004;26;3116;-61
2024/04/09 00:30:34;;;;;;;;;;;;;;;22.51;42.53;94770.25;11238312;26;3277;-61
2024/04/09 00:35:35;;;;;;;;;;;;;;;22.51;42.60;94764.19;11237055;26;3129;-61
2024/04/09 00:40:36;;;;;;;;;;;;;;;22.48;42.60;94755.00;11234349;26;3076;-61
2024/04/09 00:45:36;;;;;;;;;;;;;;;22.50;42.57;94763.41;11231388;26;3430;-61
2024/04/09 00:50:40;;;;;;;;;;;;;;;22.50;42.42;94762.66;11224126;26;3035;-61
2024/04/09 00:55:42;;;;;;;;;;;;;;;22.50;42.42;94762.66;11232574;26;2966;-61
2024/04/09 01:00:45;;;;;;;;;;;;;;;22.50;42.23;94752.09;11231090;26;3018;-60
2024/04/09 01:05:46;;;;;;;;;;;;;;;22.49;42.44;94755.78;11224952;26;3223;-61
2024/04/09 01:10:46;;;;;;;;;;;;;;;22.49;42.08;94750.50;11238038;26;3098;-60
2024/04/09 01:15:46;;;;;;;;;;;;;;;22.49;42.21;94755.78;11237429;26;2971;-60
2024/04/09 01:20:47;;;;;;;;;;;;;;;22.49;42.15;94761.88;11230207;26;3104;-60
2024/04/09 01:25:47;;;;;;;;;;;;;;;22.49;42.12;94761.06;11229530;26;3090;-60
2024/04/09 01:30:51;;;;;;;;;;;;;;;22.49;42.10;94769.78;11231478;26;3120;-60
2024/04/09 01:35:51;;;;;;;;;;;;;;;22.47;42.16;94764.03;11233251;26;3080;-60
2024/04/09 01:40:51;;;;;;;;;;;;;;;22.49;42.31;94769.00;11229051;26;3433;-60
2024/04/09 01:45:51;;;;;;;;;;;;;;;22.48;42.09;94768.22;11235338;26;3054;-60
2024/04/09 01:50:52;;;;;;;;;;;;;;;22.47;42.02;94774.59;11230219;26;3067;-60
2024/04/09 01:56:01;;;;;;;;;;;;;;;22.48;42.29;94780.66;11232688;26;3243;-60
2024/04/09 02:01:05;;;;;;;;;;;;;;;22.47;41.92;94769.31;11235496;26;3106;-60
2024/04/09 02:06:05;;;;;;;;;;;;;;;22.48;42.23;94770.09;11244398;26;3009;-60
2024/04/09 02:11:06;;;;;;;;;;;;;;;22.48;42.12;94764.81;11203018;26;3138;-58
2024/04/09 02:16:09;;;;;;;;;;;;;;;22.47;41.95;94766.69;11197714;26;3191;-60
2024/04/09 02:21:11;;;;;;;;;;;;;;;22.47;42.06;94760.59;11223355;26;3202;-60
2024/04/09 02:26:11;;;;;;;;;;;;;;;22.47;42.15;94758.75;11226553;26;3079;-60
2024/04/09 02:31:11;;;;;;;;;;;;;;;22.46;42.05;94741.34;11237251;26;3021;-60
2024/04/09 02:36:12;;;;;;;;;;;;;;;22.47;41.92;94742.13;11196630;26;3153;-60
2024/04/09 02:41:16;;;;;;;;;;;;;;;22.47;41.92;94747.41;11238165;26;2811;-60
2024/04/09 02:46:17;;;;;;;;;;;;;;;22.47;42.02;94747.41;11237206;26;3070;-60
2024/04/09 02:51:17;;;;;;;;;;;;;;;22.46;42.19;94746.63;11232326;26;3198;-60
2024/04/09 02:56:17;;;;;;;;;;;;;;;22.46;41.95;94754.53;11238352;26;2475;-60
2024/04/09 03:01:18;;;;;;;;;;;;;;;22.46;42.08;94749.25;11239908;26;3094;-60
2024/04/09 03:06:18;;;;;;;;;;;;;;;22.46;41.96;94759.81;11235762;26;3060;-60
2024/04/09 03:11:18;;;;;;;;;;;;;;;22.46;41.93;94770.38;11239057;26;3016;-60
2024/04/09 03:16:19;;;;;;;;;;;;;;;22.47;41.97;94773.81;11239853;26;3195;-60
2024/04/09 03:21:20;;;;;;;;;;;;;;;22.47;42.12;94763.25;11233286;26;3111;-60
2024/04/09 03:26:20;;;;;;;;;;;;;;;22.47;42.09;94760.59;11234232;26;3096;-61
2024/04/09 03:31:20;;;;;;;;;;;;;;;22.45;41.82;94766.22;11238067;26;3214;-60
2024/04/09 03:36:21;;;;;;;;;;;;;;;22.46;41.95;94759.81;11235496;26;3231;-60
2024/04/09 03:41:21;;;;;;;;;;;;;;;22.46;41.84;94759.81;11236772;26;3230;-60
2024/04/09 03:46:21;;;;;;;;;;;;;;;22.47;41.92;94765.88;11236273;26;3128;-60
2024/04/09 03:51:21;;;;;;;;;;;;;;;22.45;41.79;94766.22;11228551;26;3294;-60
2024/04/09 03:56:22;;;;;;;;;;;;;;;22.45;41.90;94766.22;11228522;26;3002;-60
2024/04/09 04:01:22;;;;;;;;;;;;;;;22.46;41.95;94773.03;11241791;26;3209;-60
2024/04/09 04:06:22;;;;;;;;;;;;;;;22.45;42.06;94773.34;11240777;26;2986;-60
2024/04/09 04:11:23;;;;;;;;;;;;;;;22.43;41.80;94770.25;11242706;26;3204;-60
2024/04/09 04:16:23;;;;;;;;;;;;;;;22.44;41.97;94775.19;11231196;26;3243;-61
2024/04/09 04:21:23;;;;;;;;;;;;;;;22.44;41.77;94777.84;11231376;26;3205;-60
2024/04/09 04:26:24;;;;;;;;;;;;;;;22.43;41.83;94771.03;11224624;26;2936;-60
2024/04/09 04:31:25;;;;;;;;;;;;;;;22.44;42.00;94767.28;11228920;26;3131;-60
2024/04/09 04:36:26;;;;;;;;;;;;;;;22.44;41.89;94769.16;11235742;26;3076;-60
2024/04/09 04:41:26;;;;;;;;;;;;;;;22.44;41.70;94767.28;11213577;26;2975;-60
2024/04/09 04:46:27;;;;;;;;;;;;;;;22.44;41.91;94767.28;11235053;26;3148;-60
2024/04/09 04:51:27;;;;;;;;;;;;;;;22.44;41.64;94775.19;11230073;26;2856;-60
2024/04/09 04:56:28;;;;;;;;;;;;;;;22.43;41.73;94767.59;11205944;26;3000;-58
2024/04/09 05:01:29;;;;;;;;;;;;;;;22.43;41.58;94773.66;11231180;26;3029;-60
2024/04/09 05:06:29;;;;;;;;;;;;;;;22.42;41.99;94776.63;11222682;26;2924;-60
2024/04/09 05:11:30;;;;;;;;;;;;;;;22.43;41.55;94781.59;11231667;26;3007;-58
2024/04/09 05:16:30;;;;;;;;;;;;;;;22.43;41.66;94776.31;11224462;26;3137;-58
2024/04/09 05:21:30;;;;;;;;;;;;;;;22.43;41.97;94780.81;11193386;26;3108;-61
2024/04/09 05:26:31;;;;;;;;;;;;;;;22.42;42.02;94779.25;11202591;26;3138;-62
2024/04/09 05:31:31;;;;;;;;;;;;;;;22.46;42.39;94788.13;11225285;26;3218;-62
2024/04/09 05:36:32;;;;;;;;;;;;;;;22.47;42.46;94797.59;11231957;26;3138;-62
2024/04/09 05:41:32;;;;;;;;;;;;;;;22.47;42.47;94795.72;11198274;26;3078;-61
2024/04/09 05:46:32;;;;;;;;;;;;;;;22.49;42.28;94793.56;11233868;26;3091;-62
2024/04/09 05:51:33;;;;;;;;;;;;;;;22.50;42.42;94813.59;11224959;26;2858;-61
2024/04/09 05:56:33;;;;;;;;;;;;;;;22.50;42.50;94810.19;11238024;26;3161;-61
2024/04/09 06:01:34;;;;;;;;;;;;;;;22.51;42.71;94830.22;11226863;26;3113;-61
2024/04/09 06:06:34;;;;;;;;;;;;;;;22.51;42.58;94838.91;11235003;26;2989;-60
2024/04/09 06:11:35;;;;;;;;;;;;;;;22.51;42.54;94846.06;11232606;26;3112;-60
2024/04/09 06:16:35;;;;;;;;;;;;;;;22.48;42.76;94855.38;11251732;26;3100;-60
2024/04/09 06:21:35;;;;;;;;;;;;;;;22.52;42.77;94879.31;11269925;26;3072;-62
2024/04/09 06:26:35;;;;;;;;;;;;;;;22.52;42.80;94895.91;11244409;26;3025;-62
2024/04/09 06:31:37;;;;;;;;;;;;;;;22.52;42.75;94876.69;11201799;26;2979;-63
2024/04/09 06:36:37;;;;;;;;;;;;;;;22.53;42.84;94892.22;11240119;26;2974;-63
2024/04/09 06:41:37;;;;;;;;;;;;;;;22.53;43.00;94873.72;11235752;26;3097;-63
2024/04/09 06:46:37;;;;;;;;;;;;;;;22.52;43.00;94877.44;11200545;26;3227;-62
2024/04/09 06:51:38;;;;;;;;;;;;;;;22.54;43.20;94885.06;11238035;26;2926;-62
2024/04/09 06:56:38;;;;;;;;;;;;;;;22.54;43.06;94877.16;11236299;26;3150;-62
2024/04/09 07:01:38;;;;;;;;;;;;;;;22.54;43.07;94890.34;11239538;26;3130;-62
2024/04/09 07:06:39;;;;;;;;;;;;;;;22.54;43.04;94891.16;11235564;26;3195;-62
2024/04/09 07:11:39;;;;;;;;;;;;;;;22.53;42.97;94897.50;11240428;26;3185;-62
2024/04/09 07:16:41;;;;;;;;;;;;;;;22.54;43.10;94912.28;11231331;26;3098;-62
2024/04/09 07:21:41;;;;;;;;;;;;;;;22.53;43.10;94913.34;11235969;26;3110;-61
2024/04/09 07:26:42;;;;;;;;;;;;;;;22.53;43.18;94918.63;11256980;26;3250;-61
2024/04/09 07:31:42;;;;;;;;;;;;;;;22.53;42.85;94923.13;11204261;26;3209;-61
2024/04/09 07:36:42;;;;;;;;;;;;;;;22.53;42.86;94936.31;11238037;26;3081;-62
2024/04/09 07:41:43;;;;;;;;;;;;;;;22.53;43.05;94937.13;11229612;26;2854;-61
2024/04/09 07:46:48;;;;;;;;;;;;;;;22.52;42.78;94932.91;11233237;26;3127;-62
2024/04/09 07:51:48;;;;;;;;;;;;;;;22.52;42.84;94924.22;11236150;26;3231;-61
2024/04/09 07:56:48;;;;;;;;;;;;;;;22.52;42.98;94932.91;11229890;26;3257;-61
2024/04/09 08:01:52;;;;;;;;;;;;;;;22.52;42.89;94937.44;11226339;26;3255;-61
2024/04/09 08:06:52;;;;;;;;;;;;;;;22.52;42.86;94961.94;11198765;26;3104;-61
2024/04/09 08:11:53;;;;;;;;;;;;;;;22.52;42.96;94977.03;11226338;26;3092;-62
2024/04/09 08:16:53;;;;;;;;;;;;;;;22.52;42.66;94992.88;11224230;26;3177;-62
2024/04/09 08:21:54;;;;;;;;;;;;;;;22.51;42.93;95007.94;11231706;26;3056;-62
2024/04/09 08:26:54;;;;;;;;;;;;;;;22.50;42.77;95024.88;11230236;26;2925;-61
2024/04/09 08:31:55;;;;;;;;;;;;;;;22.51;42.94;95039.66;11226143;26;3130;-61
2024/04/09 08:36:55;;;;;;;;;;;;;;;22.52;42.78;95045.72;11234210;26;3210;-61
2024/04/09 08:41:56;;;;;;;;;;;;;;;22.50;42.82;95056.56;11232396;26;2931;-61
2024/04/09 08:46:56;;;;;;;;;;;;;;;22.50;42.60;95059.19;11236421;26;2835;-61
2024/04/09 08:51:57;;;;;;;;;;;;;;;22.51;42.48;95050.22;11239257;26;2850;-62
2024/04/09 08:56:57;;;;;;;;;;;;;;;22.52;42.52;95061.56;11197702;26;3233;-62
2024/04/09 09:02:06;;;;;;;;;;;;;;;22.51;42.43;95065.25;11234268;26;3336;-62
2024/04/09 09:07:13;;;;;;;;;;;;;;;22.51;42.67;95060.78;11197634;26;3051;-62
2024/04/09 09:12:14;;;;;;;;;;;;;;;22.50;42.63;95061.84;11229580;26;3201;-61
2024/04/09 09:17:15;;;;;;;;;;;;;;;22.51;42.45;95071.34;11207966;26;3027;-61
2024/04/09 09:22:15;;;;;;;;;;;;;;;22.51;42.71;95084.53;11239250;26;3089;-62
2024/04/09 09:27:18;;;;;;;;;;;;;;;22.51;42.60;95087.19;11223560;26;2920;-62
2024/04/09 09:32:18;;;;;;;;;;;;;;;22.52;42.53;95098.53;11236649;26;3163;-62
2024/04/09 09:37:19;;;;;;;;;;;;;;;22.51;42.50;95089.81;11225801;26;3217;-62
2024/04/09 09:42:19;;;;;;;;;;;;;;;22.51;42.50;95107.53;11227508;26;3112;-61
2024/04/09 09:47:20;;;;;;;;;;;;;;;22.52;42.37;95111.75;11234507;26;3221;-61
2024/04/09 09:52:20;;;;;;;;;;;;;;;22.52;42.43;95127.59;11241452;26;3111;-62
2024/04/09 09:57:21;;;;;;;;;;;;;;;22.52;42.52;95127.59;11235061;26;2941;-62
2024/04/09 10:02:21;;;;;;;;;;;;;;;22.52;42.45;95115.13;11237390;26;2842;-62
2024/04/09 10:07:21;;;;;;;;;;;;;;;22.52;42.51;95109.84;11237421;26;3090;-62
2024/04/09 10:12:28;;;;;;;;;;;;;;;22.52;42.23;95125.72;11211059;26;2813;-62
2024/04/09 10:17:48;;;;;;;;;;;;;;;22.52;42.28;95143.44;11238503;26;3045;-62
2024/04/09 10:22:48;;;;;;;;;;;;;;;22.53;41.95;95158.19;11238785;26;3217;-62
2024/04/09 10:28:01;;;;;;;;;;;;;;;22.53;42.49;95150.25;11234609;26;3187;-62
2024/04/09 10:33:02;;;;;;;;;;;;;;;22.52;42.17;95172.50;11231135;26;3196;-62
2024/04/09 10:38:05;;;;;;;;;;;;;;;22.54;42.31;95181.69;11233842;26;3065;-62
2024/04/09 10:43:07;;;;;;;;;;;;;;;22.56;43.11;95174.25;11249000;26;3005;-61
2024/04/09 10:48:08;;;;;;;;;;;;;;;22.59;43.64;95168.38;11241227;26;3219;-62
2024/04/09 10:53:08;;;;;;;;;;;;;;;22.60;43.49;95177.88;11246015;26;2941;-61
2024/04/09 10:58:13;;;;;;;;;;;;;;;22.61;43.35;95168.84;11235246;26;3205;-62
2024/04/09 11:03:13;;;;;;;;;;;;;;;22.62;43.49;95180.22;11242417;26;3111;-62
2024/04/09 11:08:22;;;;;;;;;;;;;;;22.62;43.28;95167.78;11233944;26;3196;-64
2024/04/09 11:13:22;;;;;;;;;;;;;;;22.63;43.20;95189.69;11237255;26;3145;-60
2024/04/09 11:18:23;;;;;;;;;;;;;;;22.62;43.22;95191.56;11236505;26;2957;-62
2024/04/09 11:23:23;;;;;;;;;;;;;;;22.62;43.32;95191.56;11235878;26;3191;-64
2024/04/09 11:28:23;;;;;;;;;;;;;;;22.64;43.21;95204.47;11236427;26;3085;-62
2024/04/09 11:33:26;;;;;;;;;;;;;;;22.63;43.01;95195.75;11233325;26;2861;-62
2024/04/09 11:38:26;;;;;;;;;;;;;;;22.61;42.94;95203.19;11236938;26;3114;-62
2024/04/09 11:43:27;;;;;;;;;;;;;;;22.61;43.09;95203.19;11233588;26;3098;-62
2024/04/09 11:48:27;;;;;;;;;;;;;;;22.64;42.85;95201.81;11235429;26;3096;-61
2024/04/09 11:53:27;;;;;;;;;;;;;;;22.64;42.94;95205.25;11235952;26;3081;-62
2024/04/09 11:58:27;;;;;;;;;;;;;;;22.64;42.92;95223.75;11230398;26;2900;-61
2024/04/09 12:03:28;;;;;;;;;;;;;;;22.63;42.91;95224.03;11229420;26;3099;-62
2024/04/09 12:08:28;;;;;;;;;;;;;;;22.64;43.09;95217.66;11236146;26;2985;-62
2024/04/09 12:13:28;;;;;;;;;;;;;;;22.65;42.94;95227.94;11232623;26;2854;-61
2024/04/09 12:18:31;;;;;;;;;;;;;;;22.65;43.01;95235.84;11235092;26;3216;-61
2024/04/09 12:23:31;;;;;;;;;;;;;;;22.62;42.70;95239.13;11234291;26;3169;-62
2024/04/09 12:28:31;;;;;;;;;;;;;;;22.65;42.73;95275.50;11237037;26;3101;-61
2024/04/09 12:33:31;;;;;;;;;;;;;;;22.63;42.60;95298.00;11231872;26;3114;-61
2024/04/09 12:38:32;;;;;;;;;;;;;;;22.64;42.71;95323.34;11228383;26;2901;-62
2024/04/09 12:43:32;;;;;;;;;;;;;;;22.63;42.35;95354.25;11231189;26;3044;-61
2024/04/09 12:48:32;;;;;;;;;;;;;;;22.63;42.54;95371.97;11208372;26;3337;-61
2024/04/09 12:53:32;;;;;;;;;;;;;;;22.62;42.43;95375.69;11234264;26;2921;-61
2024/04/09 12:58:33;;;;;;;;;;;;;;;22.62;42.32;95400.25;11234221;26;3105;-61
2024/04/09 13:03:34;;;;;;;;;;;;;;;22.62;42.30;95416.13;11231306;26;2992;-61
2024/04/09 13:08:34;;;;;;;;;;;;;;;22.61;42.44;95427.75;11237388;26;3012;-61
2024/04/09 13:13:35;;;;;;;;;;;;;;;22.61;42.15;95446.25;11200297;26;3101;-61
2024/04/09 13:18:37;;;;;;;;;;;;;;;22.59;42.12;95448.38;11230871;26;3196;-61
2024/04/09 13:23:37;;;;;;;;;;;;;;;22.59;42.00;95466.88;11202297;26;3180;-61
2024/04/09 13:28:37;;;;;;;;;;;;;;;22.59;42.09;95484.59;11203669;26;2979;-61
2024/04/09 13:33:37;;;;;;;;;;;;;;;22.58;41.93;95489.09;11231656;26;3181;-61
2024/04/09 13:38:38;;;;;;;;;;;;;;;22.58;42.02;95499.69;11228160;26;3256;-61
2024/04/09 13:43:38;;;;;;;;;;;;;;;22.58;42.00;95523.44;11226873;26;2970;-61
2024/04/09 13:48:39;;;;;;;;;;;;;;;22.57;41.95;95532.41;11230602;26;2928;-61
2024/04/09 13:53:39;;;;;;;;;;;;;;;22.57;41.91;95534.25;11230772;26;3104;-61
2024/04/09 13:58:39;;;;;;;;;;;;;;;22.55;41.96;95531.91;11224271;26;3102;-61
2024/04/09 14:03:40;;;;;;;;;;;;;;;22.57;41.87;95528.97;11235520;26;3097;-61
2024/04/09 14:08:40;;;;;;;;;;;;;;;22.57;41.90;95561.47;11224521;26;3221;-61
2024/04/09 14:13:40;;;;;;;;;;;;;;;22.57;41.85;95550.09;11234160;26;3105;-61
2024/04/09 14:18:46;;;;;;;;;;;;;;;22.57;41.92;95566.75;11218967;26;3117;-61
2024/04/09 14:23:47;;;;;;;;;;;;;;;22.57;41.64;95574.66;11216268;26;3208;-61
2024/04/09 14:28:50;;;;;;;;;;;;;;;22.57;41.63;95579.94;11224418;26;2989;-62
2024/04/09 14:33:50;;;;;;;;;;;;;;;22.57;41.51;95595.81;11228089;26;2897;-62
2024/04/09 14:38:51;;;;;;;;;;;;;;;22.57;41.59;95597.66;11204005;26;3118;-62
2024/04/09 14:43:51;;;;;;;;;;;;;;;22.56;41.73;95604.81;11231190;26;2961;-62
2024/04/09 14:48:51;;;;;;;;;;;;;;;22.55;41.87;95623.56;11222400;26;2825;-62
2024/04/09 14:53:52;;;;;;;;;;;;;;;22.55;41.65;95621.72;11203098;26;3105;-62
2024/04/09 14:58:52;;;;;;;;;;;;;;;22.53;41.24;95639.72;11230608;26;3094;-62
2024/04/09 15:03:54;;;;;;;;;;;;;;;22.46;40.20;95636.66;11229359;26;2998;-63
2024/04/09 15:08:54;;;;;;;;;;;;;;;22.38;39.27;95663.72;11201938;26;3074;-62
2024/04/09 15:13:54;;;;;;;;;;;;;;;22.32;38.46;95669.34;11233452;26;3119;-63
2024/04/09 15:18:55;;;;;;;;;;;;;;;22.23;38.34;95697.50;11234795;26;3124;-63
2024/04/09 15:23:56;;;;;;;;;;;;;;;22.16;37.79;95697.84;11233319;26;3223;-63
2024/04/09 15:28:56;;;;;;;;;;;;;;;22.12;37.99;95694.19;11232570;26;3093;-63
2024/04/09 15:33:57;;;;;;;;;;;;;;;22.09;37.79;95701.91;11223441;26;3101;-63
2024/04/09 15:38:58;;;;;;;;;;;;;;;22.05;37.57;95706.94;11225997;26;3005;-63
2024/04/09 15:43:58;;;;;;;;;;;;;;;22.03;37.56;95713.59;11229626;26;2865;-61
2024/04/09 15:48:59;;;;;;;;;;;;;;;22.00;37.36;95720.22;11231415;26;3121;-61
2024/04/09 15:54:00;;;;;;;;;;;;;;;21.98;37.35;95732.13;11233923;26;3101;-61
2024/04/09 15:59:02;;;;;;;;;;;;;;;21.96;37.43;95747.47;11224423;26;3100;-62
2024/04/09 16:04:03;;;;;;;;;;;;;;;21.95;37.09;95753.81;11251144;26;3395;-61
2024/04/09 16:09:07;;;;;;;;;;;;;;;21.96;37.25;95761.44;11223280;26;3107;-62
2024/04/09 16:14:09;;;;;;;;;;;;;;;21.95;36.99;95770.41;11205240;26;3200;-62
2024/04/09 16:19:09;;;;;;;;;;;;;;;21.97;37.17;95767.53;11234626;26;3038;-60
2024/04/09 16:24:10;;;;;;;;;;;;;;;20.77;36.88;95786.72;11224085;26;2921;-62
2024/04/09 16:29:10;;;;;;;;;;;;;;;19.82;37.11;95795.03;11226895;26;3006;-62
2024/04/09 16:34:11;;;;;;;;;;;;;;;19.32;38.07;95825.56;11236216;26;3018;-62
2024/04/09 16:39:13;;;;;;;;;;;;;;;18.98;39.13;95836.84;11232330;26;3109;-61
2024/04/09 16:44:13;;;;;;;;;;;;;;;18.77;40.15;95861.50;11232912;26;3172;-62
2024/04/09 16:49:14;;;;;;;;;;;;;;;19.25;40.09;95877.59;11237107;26;3208;-62
2024/04/09 16:54:14;;;;;;;;;;;;;;;19.77;40.00;95876.56;11236824;26;2826;-64
2024/04/09 16:59:15;;;;;;;;;;;;;;;20.13;39.87;95880.72;11231929;26;3084;-63
2024/04/09 17:04:15;;;;;;;;;;;;;;;20.38;39.70;95880.66;11230068;26;3028;-63
2024/04/09 17:09:15;;;;;;;;;;;;;;;20.66;39.56;95884.50;11225699;26;3105;-60
2024/04/09 17:14:16;;;;;;;;;;;;;;;20.86;39.44;95890.47;11230971;26;3107;-64
2024/04/09 17:19:16;;;;;;;;;;;;;;;20.99;39.42;95903.06;11233410;26;3087;-63
2024/04/09 17:24:18;;;;;;;;;;;;;;;21.12;39.25;95914.88;11226262;26;3061;-63
2024/04/09 17:29:18;;;;;;;;;;;;;;;21.24;39.22;95927.72;11230668;26;3200;-64
2024/04/09 17:34:19;;;;;;;;;;;;;;;21.33;39.14;95929.50;11199072;26;3112;-64
2024/04/09 17:39:19;;;;;;;;;;;;;;;21.44;38.72;95932.84;11240450;26;2963;-63
2024/04/09 17:44:20;;;;;;;;;;;;;;;21.55;38.37;95944.91;11237164;26;2956;-63
2024/04/09 17:49:20;;;;;;;;;;;;;;;21.66;38.09;95946.41;11208775;26;2876;-63
2024/04/09 17:54:21;;;;;;;;;;;;;;;21.75;37.82;95966.66;11233322;26;3197;-63
2024/04/09 17:59:21;;;;;;;;;;;;;;;21.81;38.13;95983.22;11227652;26;3453;-63
2024/04/09 18:04:25;;;;;;;;;;;;;;;21.86;37.70;95988.53;11235460;26;3219;-63
2024/04/09 18:09:25;;;;;;;;;;;;;;;21.89;37.74;95998.50;11240800;26;3018;-64
2024/04/09 18:14:25;;;;;;;;;;;;;;;21.94;38.01;96010.88;11237087;26;3229;-63
2024/04/09 18:19:26;;;;;;;;;;;;;;;21.97;37.92;96010.34;11201216;26;3074;-63
2024/04/09 18:24:26;;;;;;;;;;;;;;;22.00;37.87;96018.50;11240133;26;3343;-62
2024/04/09 18:29:26;;;;;;;;;;;;;;;22.03;37.76;96031.13;11229042;26;3194;-63
2024/04/09 18:34:27;;;;;;;;;;;;;;;22.07;37.83;96048.00;11264769;26;3169;-63
2024/04/09 18:39:27;;;;;;;;;;;;;;;22.09;37.97;96060.94;11207634;26;3050;-64
2024/04/09 18:44:29;;;;;;;;;;;;;;;22.11;37.72;96066.72;11257347;26;3166;-62
2024/04/09 18:49:31;;;;;;;;;;;;;;;22.14;38.19;96066.97;11224491;26;2909;-62
2024/04/09 18:54:31;;;;;;;;;;;;;;;22.17;38.02;96076.97;11260948;26;3261;-61
2024/04/09 18:59:31;;;;;;;;;;;;;;;22.21;37.98;96085.13;11238146;26;3170;-62
2024/04/09 19:04:32;;;;;;;;;;;;;;;22.22;37.47;96091.97;11236213;26;2969;-60
2024/04/09 19:09:36;;;;;;;;;;;;;;;22.24;37.38;96103.84;11232590;26;3095;-61
2024/04/09 19:14:37;;;;;;;;;;;;;;;22.25;37.68;96108.06;11236173;26;3206;-60
2024/04/09 19:19:41;;;;;;;;;;;;;;;22.25;37.47;96121.28;11228785;26;3105;-61
2024/04/09 19:24:41;;;;;;;;;;;;;;;22.27;37.34;96135.00;11234047;26;3325;-61
2024/04/09 19:29:41;;;;;;;;;;;;;;;22.27;37.58;96150.84;11234949;26;2995;-63
2024/04/09 19:34:42;;;;;;;;;;;;;;;22.29;37.54;96148.72;11211028;26;3098;-64
2024/04/09 19:39:42;;;;;;;;;;;;;;;22.30;37.74;96155.56;11237170;26;3099;-63
2024/04/09 19:44:43;;;;;;;;;;;;;;;22.30;37.57;96160.03;11262728;26;3176;-63
2024/04/09 19:49:43;;;;;;;;;;;;;;;22.27;37.62;96166.69;11233782;26;3111;-64
2024/04/09 19:54:43;;;;;;;;;;;;;;;22.24;38.25;96174.34;11243802;26;3133;-64
2024/04/09 19:59:45;;;;;;;;;;;;;;;22.20;38.10;96175.97;11245820;26;3217;-64
2024/04/09 20:04:45;;;;;;;;;;;;;;;22.15;38.38;96187.38;11238911;26;3220;-64
2024/04/09 20:09:46;;;;;;;;;;;;;;;22.12;38.40;96187.91;11237870;26;3219;-64
2024/04/09 20:14:47;;;;;;;;;;;;;;;22.10;38.60;96191.88;11242044;26;3121;-63
2024/04/09 20:19:47;;;;;;;;;;;;;;;22.07;38.59;96195.81;11236559;26;3033;-63
2024/04/09 20:24:48;;;;;;;;;;;;;;;22.04;38.81;96185.84;11225362;26;3119;-64
2024/04/09 20:29:48;;;;;;;;;;;;;;;22.02;39.05;96193.22;11233238;26;3153;-64
2024/04/09 20:34:48;;;;;;;;;;;;;;;22.03;38.88;96197.44;11233891;26;2842;-64
2024/04/09 20:39:48;;;;;;;;;;;;;;;22.01;39.08;96201.44;11233166;26;2977;-65
2024/04/09 20:44:49;;;;;;;;;;;;;;;22.01;39.05;96201.44;11229962;26;2973;-64
2024/04/09 20:49:49;;;;;;;;;;;;;;;21.99;39.32;96199.03;11236733;26;2851;-64
2024/04/09 20:54:54;;;;;;;;;;;;;;;21.99;39.21;96204.31;11256832;26;3098;-64
2024/04/09 20:59:54;;;;;;;;;;;;;;;21.98;39.05;96208.03;11233016;26;2980;-64
2024/04/09 21:04:55;;;;;;;;;;;;;;;21.98;39.34;96218.59;11216189;26;3200;-64
2024/04/09 21:09:55;;;;;;;;;;;;;;;21.97;39.29;96218.88;11231490;26;3371;-64
2024/04/09 21:14:55;;;;;;;;;;;;;;;21.97;39.21;96210.94;11231933;26;3207;-64
2024/04/09 21:19:56;;;;;;;;;;;;;;;21.96;38.91;96223.34;11214097;26;3164;-64
2024/04/09 21:24:56;;;;;;;;;;;;;;;21.96;38.70;96227.84;11228293;26;3103;-64
2024/04/09 21:29:56;;;;;;;;;;;;;;;21.95;38.58;96221.00;11225989;26;2899;-64
2024/04/09 21:34:56;;;;;;;;;;;;;;;21.95;38.86;96226.28;11227349;26;3120;-63
2024/04/09 21:39:58;;;;;;;;;;;;;;;21.94;38.93;96227.31;11228873;26;3128;-63
2024/04/09 21:44:58;;;;;;;;;;;;;;;21.93;38.90;96226.53;11233508;26;3005;-63
2024/04/09 21:49:58;;;;;;;;;;;;;;;21.93;38.76;96242.34;11234282;26;3060;-65
2024/04/09 21:54:59;;;;;;;;;;;;;;;21.93;38.63;96241.59;11236947;26;3191;-65
2024/04/09 21:59:59;;;;;;;;;;;;;;;21.92;38.51;96251.34;11237035;26;2898;-64
2024/04/09 22:04:59;;;;;;;;;;;;;;;21.92;38.67;96261.91;11233894;26;2921;-63
2024/04/09 22:10:00;;;;;;;;;;;;;;;21.91;38.84;96262.94;11237134;26;2958;-65
2024/04/09 22:15:00;;;;;;;;;;;;;;;21.91;38.46;96268.22;11234890;26;2921;-62
2024/04/09 22:20:00;;;;;;;;;;;;;;;21.90;38.45;96260.59;11236539;26;3220;-64
2024/04/09 22:25:01;;;;;;;;;;;;;;;21.90;38.48;96268.50;11257857;26;3099;-63
2024/04/09 22:30:01;;;;;;;;;;;;;;;21.90;38.68;96273.78;11230028;26;3195;-64
2024/04/09 22:35:01;;;;;;;;;;;;;;;21.88;38.62;96277.47;11230724;26;3310;-63
2024/04/09 22:40:04;;;;;;;;;;;;;;;21.88;38.39;96275.91;11229913;26;3219;-64
2024/04/09 22:45:04;;;;;;;;;;;;;;;21.88;38.45;96277.47;11240606;26;3081;-63
2024/04/09 22:50:05;;;;;;;;;;;;;;;21.87;38.05;96269.84;11246527;26;2938;-63
2024/04/09 22:55:06;;;;;;;;;;;;;;;21.87;38.15;96256.63;11232445;26;2989;-63
2024/04/09 23:00:09;;;;;;;;;;;;;;;21.87;38.33;96261.91;11233238;26;3033;-63
2024/04/09 23:05:10;;;;;;;;;;;;;;;21.86;38.09;96257.72;11238001;26;3116;-63
2024/04/09 23:10:10;;;;;;;;;;;;;;;21.85;38.17;96267.47;11237198;26;3211;-64
2024/04/09 23:15:10;;;;;;;;;;;;;;;21.85;38.28;96271.94;11233431;26;3108;-63
2024/04/09 23:20:10;;;;;;;;;;;;;;;21.84;37.94;96270.38;11231337;26;3213;-64
2024/04/09 23:25:11;;;;;;;;;;;;;;;21.83;37.99;96284.63;11234696;26;3052;-63
2024/04/09 23:30:11;;;;;;;;;;;;;;;21.84;37.91;96283.59;11240964;26;3115;-64
2024/04/09 23:35:12;;;;;;;;;;;;;;;21.82;38.02;96289.09;11234006;26;2562;-64
2024/04/09 23:40:14;;;;;;;;;;;;;;;21.83;37.81;96295.19;11236037;26;3091;-64
2024/04/09 23:45:14;;;;;;;;;;;;;;;21.81;37.85;96303.38;11237525;26;3076;-64
2024/04/09 23:50:15;;;;;;;;;;;;;;;21.81;37.55;96302.53;11239162;26;3222;-63
2024/04/09 23:55:15;;;;;;;;;;;;;;;21.81;37.86;96305.19;11233572;26;2937;-63
